CST,Max TemperatureF,Mean TemperatureF,Min TemperatureF,Max Dew PointF,MeanDew PointF,Min DewpointF,Max Humidity, Mean Humidity, Min Humidity, Max Sea Level PressureIn, Mean Sea Level PressureIn, Min Sea Level PressureIn, Max VisibilityMiles, Mean VisibilityMiles, Min VisibilityMiles, Max Wind SpeedMPH, Mean Wind SpeedMPH, Max Gust SpeedMPH,PrecipitationIn, CloudCover, Events, WindDirDegrees
2013-1-1,34,25,15,33,23,13,100,87,74,30.31,30.22,30.08,10,7,2,15,7,21,T,6,Rain,12
2013-1-2,35,25,14,22,17,11,91,72,52,30.32,30.28,30.21,10,8,6,13,6,16,0.00,0,,214
2013-1-3,41,29,17,28,23,17,100,73,46,30.46,30.41,30.27,10,8,5,12,4,,0.00,3,,272
2013-1-4,46,31,16,24,22,17,100,69,37,30.48,30.41,30.33,10,10,6,15,7,18,0.00,0,,203
2013-1-5,44,37,29,32,28,22,75,65,54,30.31,30.25,30.15,10,10,10,22,11,26,T,5,Rain,209
2013-1-6,42,33,24,26,22,19,85,63,41,30.41,30.35,30.25,10,10,7,12,4,15,0.00,0,,282
2013-1-7,51,38,25,25,23,19,75,54,32,30.36,30.24,30.12,10,10,10,20,10,25,0.00,0,,177
2013-1-8,57,44,31,47,36,23,100,72,43,30.22,30.13,30.05,10,8,2,20,10,24,0.20,4,Rain,185
2013-1-9,55,48,40,46,42,34,100,75,50,30.39,30.30,30.22,10,4,0,20,7,28,0.00,5,Fog,54
2013-1-10,55,50,44,52,46,33,100,87,52,30.22,29.95,29.82,10,9,2,18,13,28,0.11,7,Rain,143
2013-1-11,66,57,47,47,44,42,93,69,44,29.84,29.77,29.68,10,10,10,29,19,41,0.00,3,,192
2013-1-12,60,42,24,45,26,18,92,64,35,30.04,29.96,29.79,10,8,2,22,13,44,0.55,8,Rain,359
2013-1-13,25,20,14,19,16,11,92,83,73,30.41,30.22,30.03,10,9,2,16,7,21,T,4,Snow,342
2013-1-14,28,19,9,19,14,7,92,80,68,30.52,30.43,30.37,10,9,6,12,4,14,0.00,0,,48
2013-1-15,30,22,14,19,16,12,92,78,63,30.39,30.30,30.23,10,10,9,10,5,,0.00,3,,42
2013-1-16,42,27,12,23,17,10,96,69,41,30.24,30.18,30.10,10,10,7,16,7,21,0.00,0,,208
2013-1-17,46,37,27,31,26,19,92,71,49,30.50,30.41,30.22,10,10,10,17,6,22,0.00,0,,12
2013-1-18,56,43,29,29,26,24,85,58,30,30.50,30.33,30.16,10,10,10,24,14,49,0.00,0,,190
2013-1-19,60,50,39,36,33,30,73,56,39,30.23,30.13,30.06,10,10,10,24,12,35,0.00,0,,219
2013-1-20,52,39,26,29,23,13,78,56,34,30.36,30.26,30.18,10,10,10,24,8,75,0.00,0,,41
2013-1-21,34,27,19,14,12,10,68,55,41,30.45,30.40,30.36,10,10,10,14,7,23,0.00,0,,34
2013-1-22,40,29,18,21,17,12,80,64,48,30.38,30.31,30.24,10,10,10,15,5,18,0.00,2,,90
2013-1-23,56,39,22,37,28,18,88,70,51,30.32,30.24,30.17,10,10,9,14,5,17,0.00,0,,36
2013-1-24,36,31,26,22,16,11,63,52,41,30.39,30.28,30.15,10,10,10,17,12,26,0.00,8,,90
2013-1-25,48,41,33,27,24,18,75,57,38,30.29,30.21,30.14,10,10,8,10,5,,0.00,3,,325
2013-1-26,59,45,31,26,24,21,85,54,23,30.29,30.21,30.12,10,10,8,14,6,20,T,3,,131
2013-1-27,62,54,45,55,45,23,83,58,32,30.11,29.97,29.86,10,10,10,31,17,38,T,7,Rain,175
2013-1-28,73,66,59,60,59,55,84,71,57,29.91,29.84,29.75,10,10,10,31,20,44,0.00,6,,192
2013-1-29,69,55,40,61,53,39,100,87,73,29.72,29.56,29.47,10,6,1,33,15,88,1.58,7,Rain-Thunderstorm,140
2013-1-30,41,32,22,39,27,18,93,78,63,30.08,29.78,29.55,10,9,2,28,15,33,T,7,Rain,286
2013-1-31,37,25,13,25,17,5,91,74,57,30.51,30.22,30.02,10,8,1,22,10,24,0.01,3,Snow,304